sensor_id;sensor_type;location;lat;lon;timestamp;P1;durP1;ratioP1;P2;durP2;ratioP2
3747;SDS011;1889;50.058;8.688;2024-02-04T00:00:46;0.80;;;0.80;;
3747;SDS011;1889;50.058;8.688;2024-02-04T00:03:16;0.80;;;0.80;;
3747;SDS011;1889;50.058;8.688;2024-02-04T00:05:46;0.78;;;0.78;;
3747;SDS011;1889;50.058;8.688;2024-02-04T00:08:16;0.80;;;0.68;;
3747;SDS011;1889;50.058;8.688;2024-02-04T00:10:46;0.60;;;0.60;;
3747;SDS011;1889;50.058;8.688;2024-02-04T00:13:15;0.82;;;0.82;;
3747;SDS011;1889;50.058;8.688;2024-02-04T00:15:45;0.78;;;0.78;;
3747;SDS011;1889;50.058;8.688;2024-02-04T00:18:14;0.82;;;0.78;;
3747;SDS011;1889;50.058;8.688;2024-02-04T00:20:44;1.05;;;0.80;;
3747;SDS011;1889;50.058;8.688;2024-02-04T00:23:14;0.70;;;0.70;;
3747;SDS011;1889;50.058;8.688;2024-02-04T00:25:48;1.00;;;0.88;;
3747;SDS011;1889;50.058;8.688;2024-02-04T00:28:18;1.00;;;1.00;;
3747;SDS011;1889;50.058;8.688;2024-02-04T00:30:48;0.88;;;0.80;;
3747;SDS011;1889;50.058;8.688;2024-02-04T00:33:19;0.80;;;0.72;;
3747;SDS011;1889;50.058;8.688;2024-02-04T00:35:49;1.10;;;0.88;;
3747;SDS011;1889;50.058;8.688;2024-02-04T00:38:25;0.70;;;0.70;;
3747;SDS011;1889;50.058;8.688;2024-02-04T00:40:54;0.80;;;0.80;;
3747;SDS011;1889;50.058;8.688;2024-02-04T00:43:24;0.93;;;0.93;;
3747;SDS011;1889;50.058;8.688;2024-02-04T00:45:54;0.75;;;0.75;;
3747;SDS011;1889;50.058;8.688;2024-02-04T00:48:24;0.65;;;0.60;;
3747;SDS011;1889;50.058;8.688;2024-02-04T00:50:53;0.60;;;0.60;;
3747;SDS011;1889;50.058;8.688;2024-02-04T00:53:23;0.62;;;0.62;;
3747;SDS011;1889;50.058;8.688;2024-02-04T00:55:54;1.42;;;0.68;;
3747;SDS011;1889;50.058;8.688;2024-02-04T00:58:24;0.70;;;0.70;;
3747;SDS011;1889;50.058;8.688;2024-02-04T01:00:54;0.50;;;0.50;;
3747;SDS011;1889;50.058;8.688;2024-02-04T01:03:23;2.25;;;0.80;;
3747;SDS011;1889;50.058;8.688;2024-02-04T01:05:53;1.15;;;0.50;;
3747;SDS011;1889;50.058;8.688;2024-02-04T01:08:23;0.95;;;0.70;;
3747;SDS011;1889;50.058;8.688;2024-02-04T01:10:53;2.65;;;0.60;;
3747;SDS011;1889;50.058;8.688;2024-02-04T01:13:22;0.70;;;0.57;;
3747;SDS011;1889;50.058;8.688;2024-02-04T01:15:52;0.40;;;0.40;;
3747;SDS011;1889;50.058;8.688;2024-02-04T01:18:22;0.50;;;0.50;;
3747;SDS011;1889;50.058;8.688;2024-02-04T01:20:51;0.70;;;0.70;;
3747;SDS011;1889;50.058;8.688;2024-02-04T01:23:22;1.00;;;0.50;;
3747;SDS011;1889;50.058;8.688;2024-02-04T01:25:51;0.33;;;0.33;;
3747;SDS011;1889;50.058;8.688;2024-02-04T01:28:21;0.68;;;0.68;;
3747;SDS011;1889;50.058;8.688;2024-02-04T01:30:50;0.78;;;0.70;;
3747;SDS011;1889;50.058;8.688;2024-02-04T01:33:19;1.30;;;0.70;;
3747;SDS011;1889;50.058;8.688;2024-02-04T01:35:49;0.85;;;0.72;;
3747;SDS011;1889;50.058;8.688;2024-02-04T01:38:19;0.50;;;0.50;;
3747;SDS011;1889;50.058;8.688;2024-02-04T01:40:48;0.78;;;0.68;;
3747;SDS011;1889;50.058;8.688;2024-02-04T01:43:19;0.50;;;0.50;;
3747;SDS011;1889;50.058;8.688;2024-02-04T01:45:49;1.05;;;0.60;;
3747;SDS011;1889;50.058;8.688;2024-02-04T01:48:23;0.50;;;0.50;;
3747;SDS011;1889;50.058;8.688;2024-02-04T01:50:53;0.45;;;0.45;;
3747;SDS011;1889;50.058;8.688;2024-02-04T01:53:25;0.60;;;0.60;;
3747;SDS011;1889;50.058;8.688;2024-02-04T01:55:56;0.68;;;0.60;;
3747;SDS011;1889;50.058;8.688;2024-02-04T01:58:26;0.40;;;0.40;;
3747;SDS011;1889;50.058;8.688;2024-02-04T02:00:55;0.70;;;0.70;;
3747;SDS011;1889;50.058;8.688;2024-02-04T02:03:26;0.70;;;0.70;;
3747;SDS011;1889;50.058;8.688;2024-02-04T02:05:56;1.45;;;0.70;;
3747;SDS011;1889;50.058;8.688;2024-02-04T02:08:27;0.57;;;0.57;;
3747;SDS011;1889;50.058;8.688;2024-02-04T02:10:57;0.57;;;0.57;;
3747;SDS011;1889;50.058;8.688;2024-02-04T02:13:29;0.72;;;0.72;;
3747;SDS011;1889;50.058;8.688;2024-02-04T02:16:03;1.20;;;0.78;;
3747;SDS011;1889;50.058;8.688;2024-02-04T02:18:53;1.92;;;0.90;;
3747;SDS011;1889;50.058;8.688;2024-02-04T02:21:38;0.68;;;0.68;;
3747;SDS011;1889;50.058;8.688;2024-02-04T02:27:09;0.62;;;0.62;;
3747;SDS011;1889;50.058;8.688;2024-02-04T02:29:39;0.42;;;0.42;;
3747;SDS011;1889;50.058;8.688;2024-02-04T02:32:08;0.82;;;0.60;;
3747;SDS011;1889;50.058;8.688;2024-02-04T02:34:38;0.70;;;0.70;;
3747;SDS011;1889;50.058;8.688;2024-02-04T02:37:16;0.40;;;0.40;;
3747;SDS011;1889;50.058;8.688;2024-02-04T02:39:52;0.68;;;0.60;;
3747;SDS011;1889;50.058;8.688;2024-02-04T02:42:18;1.37;;;0.60;;
3747;SDS011;1889;50.058;8.688;2024-02-04T02:44:50;1.10;;;0.60;;
3747;SDS011;1889;50.058;8.688;2024-02-04T02:47:22;0.60;;;0.60;;
3747;SDS011;1889;50.058;8.688;2024-02-04T02:49:54;0.60;;;0.60;;
3747;SDS011;1889;50.058;8.688;2024-02-04T02:52:23;0.55;;;0.55;;
3747;SDS011;1889;50.058;8.688;2024-02-04T02:54:52;0.78;;;0.57;;
3747;SDS011;1889;50.058;8.688;2024-02-04T02:57:22;1.55;;;0.68;;
3747;SDS011;1889;50.058;8.688;2024-02-04T02:59:51;0.70;;;0.70;;
3747;SDS011;1889;50.058;8.688;2024-02-04T03:02:20;0.50;;;0.50;;
3747;SDS011;1889;50.058;8.688;2024-02-04T03:04:50;0.82;;;0.82;;
3747;SDS011;1889;50.058;8.688;2024-02-04T03:07:19;0.70;;;0.70;;
3747;SDS011;1889;50.058;8.688;2024-02-04T03:09:48;0.70;;;0.70;;
3747;SDS011;1889;50.058;8.688;2024-02-04T03:12:17;0.80;;;0.80;;
3747;SDS011;1889;50.058;8.688;2024-02-04T03:14:47;0.82;;;0.80;;
3747;SDS011;1889;50.058;8.688;2024-02-04T03:17:16;0.60;;;0.60;;
3747;SDS011;1889;50.058;8.688;2024-02-04T03:19:47;0.70;;;0.70;;
3747;SDS011;1889;50.058;8.688;2024-02-04T03:22:18;0.95;;;0.80;;
3747;SDS011;1889;50.058;8.688;2024-02-04T03:24:49;1.50;;;0.80;;
3747;SDS011;1889;50.058;8.688;2024-02-04T03:27:18;0.78;;;0.78;;
3747;SDS011;1889;50.058;8.688;2024-02-04T03:29:47;1.40;;;0.70;;
3747;SDS011;1889;50.058;8.688;2024-02-04T03:32:16;0.82;;;0.82;;
3747;SDS011;1889;50.058;8.688;2024-02-04T03:34:46;0.60;;;0.60;;
3747;SDS011;1889;50.058;8.688;2024-02-04T03:37:15;1.95;;;0.80;;
3747;SDS011;1889;50.058;8.688;2024-02-04T03:39:44;0.70;;;0.70;;
3747;SDS011;1889;50.058;8.688;2024-02-04T03:42:14;1.67;;;0.90;;
3747;SDS011;1889;50.058;8.688;2024-02-04T03:44:45;0.65;;;0.65;;
3747;SDS011;1889;50.058;8.688;2024-02-04T03:47:15;1.05;;;0.65;;
3747;SDS011;1889;50.058;8.688;2024-02-04T03:49:44;1.30;;;0.82;;
3747;SDS011;1889;50.058;8.688;2024-02-04T03:52:13;0.75;;;0.75;;
3747;SDS011;1889;50.058;8.688;2024-02-04T03:54:42;0.80;;;0.80;;
3747;SDS011;1889;50.058;8.688;2024-02-04T03:57:12;1.32;;;0.80;;
3747;SDS011;1889;50.058;8.688;2024-02-04T03:59:44;0.93;;;0.90;;
3747;SDS011;1889;50.058;8.688;2024-02-04T04:02:15;0.90;;;0.90;;
3747;SDS011;1889;50.058;8.688;2024-02-04T04:04:44;1.00;;;0.85;;
3747;SDS011;1889;50.058;8.688;2024-02-04T04:07:15;1.22;;;1.12;;
3747;SDS011;1889;50.058;8.688;2024-02-04T04:09:44;1.20;;;1.10;;
3747;SDS011;1889;50.058;8.688;2024-02-04T04:12:14;1.15;;;1.05;;
3747;SDS011;1889;50.058;8.688;2024-02-04T04:14:43;0.93;;;0.93;;
3747;SDS011;1889;50.058;8.688;2024-02-04T04:17:12;1.32;;;0.90;;
3747;SDS011;1889;50.058;8.688;2024-02-04T04:19:41;0.90;;;0.90;;
3747;SDS011;1889;50.058;8.688;2024-02-04T04:22:11;1.00;;;1.00;;
3747;SDS011;1889;50.058;8.688;2024-02-04T04:24:40;0.70;;;0.70;;
3747;SDS011;1889;50.058;8.688;2024-02-04T04:27:09;0.93;;;0.90;;
3747;SDS011;1889;50.058;8.688;2024-02-04T04:29:39;1.12;;;1.05;;
3747;SDS011;1889;50.058;8.688;2024-02-04T04:32:08;1.25;;;1.00;;
3747;SDS011;1889;50.058;8.688;2024-02-04T04:34:38;1.00;;;1.00;;
3747;SDS011;1889;50.058;8.688;2024-02-04T04:37:07;2.60;;;0.93;;
3747;SDS011;1889;50.058;8.688;2024-02-04T04:39:36;0.90;;;0.90;;
3747;SDS011;1889;50.058;8.688;2024-02-04T04:42:05;1.10;;;0.90;;
3747;SDS011;1889;50.058;8.688;2024-02-04T04:44:35;1.07;;;0.98;;
3747;SDS011;1889;50.058;8.688;2024-02-04T04:47:04;1.00;;;0.90;;
3747;SDS011;1889;50.058;8.688;2024-02-04T04:49:33;2.00;;;1.00;;
3747;SDS011;1889;50.058;8.688;2024-02-04T04:52:03;0.98;;;0.88;;
3747;SDS011;1889;50.058;8.688;2024-02-04T04:54:32;1.15;;;0.78;;
3747;SDS011;1889;50.058;8.688;2024-02-04T04:57:02;1.85;;;0.90;;
3747;SDS011;1889;50.058;8.688;2024-02-04T04:59:31;0.90;;;0.90;;
3747;SDS011;1889;50.058;8.688;2024-02-04T05:02:00;1.05;;;1.00;;
3747;SDS011;1889;50.058;8.688;2024-02-04T05:04:30;0.78;;;0.78;;
3747;SDS011;1889;50.058;8.688;2024-02-04T05:06:59;1.92;;;1.05;;
3747;SDS011;1889;50.058;8.688;2024-02-04T05:09:29;0.60;;;0.60;;
3747;SDS011;1889;50.058;8.688;2024-02-04T05:11:58;0.50;;;0.50;;
3747;SDS011;1889;50.058;8.688;2024-02-04T05:14:27;0.47;;;0.47;;
3747;SDS011;1889;50.058;8.688;2024-02-04T05:16:57;0.57;;;0.57;;
3747;SDS011;1889;50.058;8.688;2024-02-04T05:19:26;0.50;;;0.50;;
3747;SDS011;1889;50.058;8.688;2024-02-04T05:21:55;0.57;;;0.40;;
3747;SDS011;1889;50.058;8.688;2024-02-04T05:24:24;0.40;;;0.40;;
3747;SDS011;1889;50.058;8.688;2024-02-04T05:26:54;0.37;;;0.37;;
3747;SDS011;1889;50.058;8.688;2024-02-04T05:29:23;0.35;;;0.35;;
3747;SDS011;1889;50.058;8.688;2024-02-04T05:31:52;0.40;;;0.40;;
3747;SDS011;1889;50.058;8.688;2024-02-04T05:34:21;0.28;;;0.28;;
3747;SDS011;1889;50.058;8.688;2024-02-04T05:36:51;0.20;;;0.20;;
3747;SDS011;1889;50.058;8.688;2024-02-04T05:39:20;1.50;;;0.40;;
3747;SDS011;1889;50.058;8.688;2024-02-04T05:41:51;0.20;;;0.20;;
3747;SDS011;1889;50.058;8.688;2024-02-04T05:44:20;1.32;;;0.45;;
3747;SDS011;1889;50.058;8.688;2024-02-04T05:46:49;0.30;;;0.25;;
3747;SDS011;1889;50.058;8.688;2024-02-04T05:49:19;1.20;;;0.20;;
3747;SDS011;1889;50.058;8.688;2024-02-04T05:51:48;0.13;;;0.13;;
3747;SDS011;1889;50.058;8.688;2024-02-04T05:54:17;0.30;;;0.30;;
3747;SDS011;1889;50.058;8.688;2024-02-04T05:56:46;0.30;;;0.15;;
3747;SDS011;1889;50.058;8.688;2024-02-04T05:59:16;0.15;;;0.15;;
3747;SDS011;1889;50.058;8.688;2024-02-04T06:01:45;0.93;;;0.20;;
3747;SDS011;1889;50.058;8.688;2024-02-04T06:04:14;0.30;;;0.23;;
3747;SDS011;1889;50.058;8.688;2024-02-04T06:06:43;1.00;;;0.47;;
3747;SDS011;1889;50.058;8.688;2024-02-04T06:09:14;0.30;;;0.20;;
3747;SDS011;1889;50.058;8.688;2024-02-04T06:11:46;0.20;;;0.20;;
3747;SDS011;1889;50.058;8.688;2024-02-04T06:14:15;0.30;;;0.20;;
3747;SDS011;1889;50.058;8.688;2024-02-04T06:16:45;0.20;;;0.20;;
3747;SDS011;1889;50.058;8.688;2024-02-04T06:19:14;0.20;;;0.20;;
3747;SDS011;1889;50.058;8.688;2024-02-04T06:21:43;0.30;;;0.30;;
3747;SDS011;1889;50.058;8.688;2024-02-04T06:24:12;0.30;;;0.30;;
3747;SDS011;1889;50.058;8.688;2024-02-04T06:26:42;0.40;;;0.30;;
3747;SDS011;1889;50.058;8.688;2024-02-04T06:29:11;0.30;;;0.30;;
3747;SDS011;1889;50.058;8.688;2024-02-04T06:31:43;0.23;;;0.23;;
3747;SDS011;1889;50.058;8.688;2024-02-04T06:34:15;0.95;;;0.30;;
3747;SDS011;1889;50.058;8.688;2024-02-04T06:36:44;0.30;;;0.30;;
3747;SDS011;1889;50.058;8.688;2024-02-04T06:39:14;1.07;;;0.30;;
3747;SDS011;1889;50.058;8.688;2024-02-04T06:41:43;0.93;;;0.70;;
3747;SDS011;1889;50.058;8.688;2024-02-04T06:44:12;0.20;;;0.20;;
3747;SDS011;1889;50.058;8.688;2024-02-04T06:46:42;0.40;;;0.40;;
3747;SDS011;1889;50.058;8.688;2024-02-04T06:49:11;0.23;;;0.23;;
3747;SDS011;1889;50.058;8.688;2024-02-04T06:51:42;0.20;;;0.20;;
3747;SDS011;1889;50.058;8.688;2024-02-04T06:54:12;0.37;;;0.20;;
3747;SDS011;1889;50.058;8.688;2024-02-04T06:56:41;0.30;;;0.30;;
3747;SDS011;1889;50.058;8.688;2024-02-04T06:59:10;0.35;;;0.30;;
3747;SDS011;1889;50.058;8.688;2024-02-04T07:01:39;0.20;;;0.20;;
3747;SDS011;1889;50.058;8.688;2024-02-04T07:04:09;0.20;;;0.20;;
3747;SDS011;1889;50.058;8.688;2024-02-04T07:06:38;0.10;;;0.10;;
3747;SDS011;1889;50.058;8.688;2024-02-04T07:09:07;0.40;;;0.30;;
3747;SDS011;1889;50.058;8.688;2024-02-04T07:11:36;0.30;;;0.30;;
3747;SDS011;1889;50.058;8.688;2024-02-04T07:14:06;0.42;;;0.20;;
3747;SDS011;1889;50.058;8.688;2024-02-04T07:16:36;0.13;;;0.13;;
3747;SDS011;1889;50.058;8.688;2024-02-04T07:19:06;0.20;;;0.20;;
3747;SDS011;1889;50.058;8.688;2024-02-04T07:21:35;0.35;;;0.28;;
3747;SDS011;1889;50.058;8.688;2024-02-04T07:24:05;0.62;;;0.40;;
3747;SDS011;1889;50.058;8.688;2024-02-04T07:26:34;0.15;;;0.15;;
3747;SDS011;1889;50.058;8.688;2024-02-04T07:29:03;0.33;;;0.30;;
3747;SDS011;1889;50.058;8.688;2024-02-04T07:31:33;0.95;;;0.30;;
3747;SDS011;1889;50.058;8.688;2024-02-04T07:34:04;0.30;;;0.30;;
3747;SDS011;1889;50.058;8.688;2024-02-04T07:36:33;0.20;;;0.20;;
3747;SDS011;1889;50.058;8.688;2024-02-04T07:39:03;0.35;;;0.30;;
3747;SDS011;1889;50.058;8.688;2024-02-04T07:41:32;0.33;;;0.33;;
3747;SDS011;1889;50.058;8.688;2024-02-04T07:44:01;1.15;;;0.30;;
3747;SDS011;1889;50.058;8.688;2024-02-04T07:46:32;0.30;;;0.30;;
3747;SDS011;1889;50.058;8.688;2024-02-04T07:49:01;0.62;;;0.20;;
3747;SDS011;1889;50.058;8.688;2024-02-04T07:51:30;0.40;;;0.40;;
3747;SDS011;1889;50.058;8.688;2024-02-04T07:54:00;0.40;;;0.30;;
3747;SDS011;1889;50.058;8.688;2024-02-04T07:56:29;0.20;;;0.20;;
3747;SDS011;1889;50.058;8.688;2024-02-04T07:58:58;0.30;;;0.30;;
3747;SDS011;1889;50.058;8.688;2024-02-04T08:01:28;0.88;;;0.47;;
3747;SDS011;1889;50.058;8.688;2024-02-04T08:03:57;0.30;;;0.30;;
3747;SDS011;1889;50.058;8.688;2024-02-04T08:06:27;0.30;;;0.30;;
3747;SDS011;1889;50.058;8.688;2024-02-04T08:08:56;0.37;;;0.35;;
3747;SDS011;1889;50.058;8.688;2024-02-04T08:11:26;0.65;;;0.50;;
3747;SDS011;1889;50.058;8.688;2024-02-04T08:13:55;0.33;;;0.33;;
3747;SDS011;1889;50.058;8.688;2024-02-04T08:16:25;0.40;;;0.40;;
3747;SDS011;1889;50.058;8.688;2024-02-04T08:18:54;0.68;;;0.40;;
3747;SDS011;1889;50.058;8.688;2024-02-04T08:21:23;0.30;;;0.30;;
3747;SDS011;1889;50.058;8.688;2024-02-04T08:23:53;0.30;;;0.30;;
3747;SDS011;1889;50.058;8.688;2024-02-04T08:26:23;0.30;;;0.30;;
3747;SDS011;1889;50.058;8.688;2024-02-04T08:28:52;0.68;;;0.50;;
3747;SDS011;1889;50.058;8.688;2024-02-04T08:31:21;0.55;;;0.55;;
3747;SDS011;1889;50.058;8.688;2024-02-04T08:33:50;0.50;;;0.50;;
3747;SDS011;1889;50.058;8.688;2024-02-04T08:36:20;0.40;;;0.40;;
3747;SDS011;1889;50.058;8.688;2024-02-04T08:38:49;0.60;;;0.40;;
3747;SDS011;1889;50.058;8.688;2024-02-04T08:41:19;0.30;;;0.30;;
3747;SDS011;1889;50.058;8.688;2024-02-04T08:43:50;0.50;;;0.50;;
3747;SDS011;1889;50.058;8.688;2024-02-04T08:46:19;0.40;;;0.40;;
3747;SDS011;1889;50.058;8.688;2024-02-04T08:48:48;0.30;;;0.30;;
3747;SDS011;1889;50.058;8.688;2024-02-04T08:51:17;0.50;;;0.50;;
3747;SDS011;1889;50.058;8.688;2024-02-04T08:53:47;1.30;;;0.40;;
3747;SDS011;1889;50.058;8.688;2024-02-04T08:56:16;0.30;;;0.30;;
3747;SDS011;1889;50.058;8.688;2024-02-04T08:58:46;0.85;;;0.40;;
3747;SDS011;1889;50.058;8.688;2024-02-04T09:01:15;0.25;;;0.20;;
3747;SDS011;1889;50.058;8.688;2024-02-04T09:03:45;0.30;;;0.30;;
3747;SDS011;1889;50.058;8.688;2024-02-04T09:06:14;0.30;;;0.30;;
3747;SDS011;1889;50.058;8.688;2024-02-04T09:08:44;0.60;;;0.60;;
3747;SDS011;1889;50.058;8.688;2024-02-04T09:11:13;0.35;;;0.30;;
3747;SDS011;1889;50.058;8.688;2024-02-04T09:13:44;0.30;;;0.30;;
3747;SDS011;1889;50.058;8.688;2024-02-04T09:16:14;0.65;;;0.30;;
3747;SDS011;1889;50.058;8.688;2024-02-04T09:18:44;0.30;;;0.28;;
3747;SDS011;1889;50.058;8.688;2024-02-04T09:21:14;0.25;;;0.25;;
3747;SDS011;1889;50.058;8.688;2024-02-04T09:23:43;0.30;;;0.30;;
3747;SDS011;1889;50.058;8.688;2024-02-04T09:26:13;0.30;;;0.28;;
3747;SDS011;1889;50.058;8.688;2024-02-04T09:28:42;0.28;;;0.23;;
3747;SDS011;1889;50.058;8.688;2024-02-04T09:31:12;0.23;;;0.23;;
3747;SDS011;1889;50.058;8.688;2024-02-04T09:33:41;0.37;;;0.30;;
3747;SDS011;1889;50.058;8.688;2024-02-04T09:36:11;0.30;;;0.30;;
3747;SDS011;1889;50.058;8.688;2024-02-04T09:38:40;0.30;;;0.30;;
3747;SDS011;1889;50.058;8.688;2024-02-04T09:41:09;1.10;;;0.30;;
3747;SDS011;1889;50.058;8.688;2024-02-04T09:43:39;0.30;;;0.30;;
3747;SDS011;1889;50.058;8.688;2024-02-04T09:46:09;0.30;;;0.30;;
3747;SDS011;1889;50.058;8.688;2024-02-04T09:48:38;0.57;;;0.30;;
3747;SDS011;1889;50.058;8.688;2024-02-04T09:51:08;0.40;;;0.30;;
3747;SDS011;1889;50.058;8.688;2024-02-04T09:53:42;0.20;;;0.20;;
3747;SDS011;1889;50.058;8.688;2024-02-04T09:56:11;0.20;;;0.20;;
3747;SDS011;1889;50.058;8.688;2024-02-04T09:58:42;0.30;;;0.30;;
3747;SDS011;1889;50.058;8.688;2024-02-04T10:01:11;0.33;;;0.33;;
3747;SDS011;1889;50.058;8.688;2024-02-04T10:03:43;0.57;;;0.57;;
3747;SDS011;1889;50.058;8.688;2024-02-04T10:06:12;2.35;;;0.25;;
3747;SDS011;1889;50.058;8.688;2024-02-04T10:08:42;0.20;;;0.20;;
3747;SDS011;1889;50.058;8.688;2024-02-04T10:11:13;0.20;;;0.20;;
3747;SDS011;1889;50.058;8.688;2024-02-04T10:13:49;0.20;;;0.20;;
3747;SDS011;1889;50.058;8.688;2024-02-04T10:16:14;0.45;;;0.20;;
3747;SDS011;1889;50.058;8.688;2024-02-04T10:18:45;0.17;;;0.17;;
3747;SDS011;1889;50.058;8.688;2024-02-04T10:21:20;0.23;;;0.23;;
3747;SDS011;1889;50.058;8.688;2024-02-04T10:24:09;0.30;;;0.30;;
3747;SDS011;1889;50.058;8.688;2024-02-04T10:26:38;0.25;;;0.25;;
3747;SDS011;1889;50.058;8.688;2024-02-04T10:29:09;0.30;;;0.30;;
3747;SDS011;1889;50.058;8.688;2024-02-04T10:31:39;0.75;;;0.30;;
3747;SDS011;1889;50.058;8.688;2024-02-04T10:34:08;0.33;;;0.30;;
3747;SDS011;1889;50.058;8.688;2024-02-04T10:36:37;0.30;;;0.30;;
3747;SDS011;1889;50.058;8.688;2024-02-04T10:39:07;0.35;;;0.20;;
3747;SDS011;1889;50.058;8.688;2024-02-04T10:41:36;0.30;;;0.30;;
3747;SDS011;1889;50.058;8.688;2024-02-04T10:44:08;0.68;;;0.30;;
3747;SDS011;1889;50.058;8.688;2024-02-04T10:46:39;0.35;;;0.35;;
3747;SDS011;1889;50.058;8.688;2024-02-04T10:49:09;0.30;;;0.30;;
3747;SDS011;1889;50.058;8.688;2024-02-04T10:51:41;0.72;;;0.30;;
3747;SDS011;1889;50.058;8.688;2024-02-04T10:54:15;0.95;;;0.30;;
3747;SDS011;1889;50.058;8.688;2024-02-04T10:56:50;0.25;;;0.20;;
3747;SDS011;1889;50.058;8.688;2024-02-04T10:59:20;0.37;;;0.33;;
3747;SDS011;1889;50.058;8.688;2024-02-04T11:01:50;0.35;;;0.20;;
3747;SDS011;1889;50.058;8.688;2024-02-04T11:04:20;0.40;;;0.40;;
3747;SDS011;1889;50.058;8.688;2024-02-04T11:06:50;0.30;;;0.30;;
3747;SDS011;1889;50.058;8.688;2024-02-04T11:09:20;0.45;;;0.45;;
3747;SDS011;1889;50.058;8.688;2024-02-04T11:11:50;0.75;;;0.40;;
3747;SDS011;1889;50.058;8.688;2024-02-04T11:14:22;0.20;;;0.20;;
3747;SDS011;1889;50.058;8.688;2024-02-04T11:17:17;1.02;;;0.40;;
3747;SDS011;1889;50.058;8.688;2024-02-04T11:20:23;1.98;;;0.50;;
3747;SDS011;1889;50.058;8.688;2024-02-04T11:23:00;0.33;;;0.33;;
3747;SDS011;1889;50.058;8.688;2024-02-04T11:25:47;0.60;;;0.60;;
3747;SDS011;1889;50.058;8.688;2024-02-04T11:28:19;1.05;;;0.50;;
3747;SDS011;1889;50.058;8.688;2024-02-04T11:30:50;0.45;;;0.37;;
3747;SDS011;1889;50.058;8.688;2024-02-04T11:33:23;0.40;;;0.40;;
3747;SDS011;1889;50.058;8.688;2024-02-04T11:35:58;0.40;;;0.40;;
3747;SDS011;1889;50.058;8.688;2024-02-04T11:38:30;0.20;;;0.20;;
3747;SDS011;1889;50.058;8.688;2024-02-04T11:41:02;0.30;;;0.30;;
3747;SDS011;1889;50.058;8.688;2024-02-04T11:43:36;0.35;;;0.35;;
3747;SDS011;1889;50.058;8.688;2024-02-04T11:46:06;0.40;;;0.40;;
3747;SDS011;1889;50.058;8.688;2024-02-04T11:48:37;1.05;;;0.40;;
3747;SDS011;1889;50.058;8.688;2024-02-04T11:51:06;0.37;;;0.30;;
3747;SDS011;1889;50.058;8.688;2024-02-04T11:53:36;0.30;;;0.30;;
3747;SDS011;1889;50.058;8.688;2024-02-04T11:56:05;0.88;;;0.30;;
3747;SDS011;1889;50.058;8.688;2024-02-04T11:58:36;0.35;;;0.35;;
3747;SDS011;1889;50.058;8.688;2024-02-04T12:01:05;0.28;;;0.28;;
3747;SDS011;1889;50.058;8.688;2024-02-04T12:03:38;0.40;;;0.33;;
3747;SDS011;1889;50.058;8.688;2024-02-04T12:06:08;0.30;;;0.30;;
3747;SDS011;1889;50.058;8.688;2024-02-04T12:08:39;0.35;;;0.35;;
3747;SDS011;1889;50.058;8.688;2024-02-04T12:11:18;1.27;;;0.30;;
3747;SDS011;1889;50.058;8.688;2024-02-04T12:14:01;0.40;;;0.40;;
3747;SDS011;1889;50.058;8.688;2024-02-04T12:16:33;0.30;;;0.30;;
3747;SDS011;1889;50.058;8.688;2024-02-04T12:19:03;0.40;;;0.40;;
3747;SDS011;1889;50.058;8.688;2024-02-04T12:21:33;0.30;;;0.30;;
3747;SDS011;1889;50.058;8.688;2024-02-04T12:24:03;0.30;;;0.30;;
3747;SDS011;1889;50.058;8.688;2024-02-04T12:29:25;1.30;;;0.40;;
3747;SDS011;1889;50.058;8.688;2024-02-04T12:32:02;0.50;;;0.50;;
3747;SDS011;1889;50.058;8.688;2024-02-04T12:34:33;0.30;;;0.30;;
3747;SDS011;1889;50.058;8.688;2024-02-04T12:37:04;0.50;;;0.50;;
3747;SDS011;1889;50.058;8.688;2024-02-04T12:39:33;0.33;;;0.33;;
3747;SDS011;1889;50.058;8.688;2024-02-04T12:44:49;0.50;;;0.50;;
3747;SDS011;1889;50.058;8.688;2024-02-04T12:47:25;0.30;;;0.30;;
3747;SDS011;1889;50.058;8.688;2024-02-04T12:50:04;0.47;;;0.47;;
3747;SDS011;1889;50.058;8.688;2024-02-04T12:52:35;0.30;;;0.30;;
3747;SDS011;1889;50.058;8.688;2024-02-04T12:55:06;0.40;;;0.40;;
3747;SDS011;1889;50.058;8.688;2024-02-04T12:57:42;0.35;;;0.33;;
3747;SDS011;1889;50.058;8.688;2024-02-04T13:00:12;0.50;;;0.50;;
3747;SDS011;1889;50.058;8.688;2024-02-04T13:02:58;0.33;;;0.33;;
3747;SDS011;1889;50.058;8.688;2024-02-04T13:05:36;0.42;;;0.42;;
3747;SDS011;1889;50.058;8.688;2024-02-04T13:08:06;0.60;;;0.60;;
3747;SDS011;1889;50.058;8.688;2024-02-04T13:10:53;0.50;;;0.50;;
3747;SDS011;1889;50.058;8.688;2024-02-04T13:13:25;0.42;;;0.42;;
3747;SDS011;1889;50.058;8.688;2024-02-04T13:15:56;0.98;;;0.80;;
3747;SDS011;1889;50.058;8.688;2024-02-04T13:18:31;0.50;;;0.50;;
3747;SDS011;1889;50.058;8.688;2024-02-04T13:21:00;0.60;;;0.60;;
3747;SDS011;1889;50.058;8.688;2024-02-04T13:23:35;0.60;;;0.60;;
3747;SDS011;1889;50.058;8.688;2024-02-04T13:28:42;0.50;;;0.50;;
3747;SDS011;1889;50.058;8.688;2024-02-04T13:31:17;0.60;;;0.60;;
3747;SDS011;1889;50.058;8.688;2024-02-04T13:33:50;0.65;;;0.62;;
3747;SDS011;1889;50.058;8.688;2024-02-04T13:36:20;1.25;;;0.62;;
3747;SDS011;1889;50.058;8.688;2024-02-04T13:38:50;0.72;;;0.65;;
3747;SDS011;1889;50.058;8.688;2024-02-04T13:41:22;0.60;;;0.60;;
3747;SDS011;1889;50.058;8.688;2024-02-04T13:44:03;0.85;;;0.85;;
3747;SDS011;1889;50.058;8.688;2024-02-04T13:46:36;0.60;;;0.60;;
3747;SDS011;1889;50.058;8.688;2024-02-04T13:49:07;0.70;;;0.70;;
3747;SDS011;1889;50.058;8.688;2024-02-04T13:51:39;0.57;;;0.57;;
3747;SDS011;1889;50.058;8.688;2024-02-04T13:54:09;0.40;;;0.40;;
3747;SDS011;1889;50.058;8.688;2024-02-04T13:56:43;0.57;;;0.57;;
3747;SDS011;1889;50.058;8.688;2024-02-04T13:59:14;0.40;;;0.40;;
3747;SDS011;1889;50.058;8.688;2024-02-04T14:01:43;1.77;;;0.60;;
3747;SDS011;1889;50.058;8.688;2024-02-04T14:04:13;0.72;;;0.60;;
3747;SDS011;1889;50.058;8.688;2024-02-04T14:06:49;0.82;;;0.50;;
3747;SDS011;1889;50.058;8.688;2024-02-04T14:09:18;0.53;;;0.50;;
3747;SDS011;1889;50.058;8.688;2024-02-04T14:11:48;0.50;;;0.50;;
3747;SDS011;1889;50.058;8.688;2024-02-04T14:14:18;0.53;;;0.50;;
3747;SDS011;1889;50.058;8.688;2024-02-04T14:16:47;0.88;;;0.45;;
3747;SDS011;1889;50.058;8.688;2024-02-04T14:19:17;0.60;;;0.60;;
3747;SDS011;1889;50.058;8.688;2024-02-04T14:21:46;0.42;;;0.42;;
3747;SDS011;1889;50.058;8.688;2024-02-04T14:24:16;0.35;;;0.35;;
3747;SDS011;1889;50.058;8.688;2024-02-04T14:26:46;0.47;;;0.47;;
3747;SDS011;1889;50.058;8.688;2024-02-04T14:29:15;0.37;;;0.37;;
3747;SDS011;1889;50.058;8.688;2024-02-04T14:31:46;0.40;;;0.40;;
3747;SDS011;1889;50.058;8.688;2024-02-04T14:34:16;0.53;;;0.30;;
3747;SDS011;1889;50.058;8.688;2024-02-04T14:36:50;0.40;;;0.40;;
3747;SDS011;1889;50.058;8.688;2024-02-04T14:39:20;0.53;;;0.50;;
3747;SDS011;1889;50.058;8.688;2024-02-04T14:41:50;0.50;;;0.50;;
3747;SDS011;1889;50.058;8.688;2024-02-04T14:44:26;0.33;;;0.33;;
3747;SDS011;1889;50.058;8.688;2024-02-04T14:46:56;0.33;;;0.33;;
3747;SDS011;1889;50.058;8.688;2024-02-04T14:49:26;0.30;;;0.30;;
3747;SDS011;1889;50.058;8.688;2024-02-04T14:51:56;0.28;;;0.28;;
3747;SDS011;1889;50.058;8.688;2024-02-04T14:54:26;0.33;;;0.33;;
3747;SDS011;1889;50.058;8.688;2024-02-04T14:57:05;0.53;;;0.40;;
3747;SDS011;1889;50.058;8.688;2024-02-04T14:59:41;0.33;;;0.30;;
3747;SDS011;1889;50.058;8.688;2024-02-04T15:02:11;0.68;;;0.40;;
3747;SDS011;1889;50.058;8.688;2024-02-04T15:04:50;0.72;;;0.53;;
3747;SDS011;1889;50.058;8.688;2024-02-04T15:07:21;0.40;;;0.40;;
3747;SDS011;1889;50.058;8.688;2024-02-04T15:09:56;2.45;;;0.62;;
3747;SDS011;1889;50.058;8.688;2024-02-04T15:15:00;0.57;;;0.40;;
3747;SDS011;1889;50.058;8.688;2024-02-04T15:20:13;0.40;;;0.40;;
3747;SDS011;1889;50.058;8.688;2024-02-04T15:25:33;2.37;;;0.50;;
3747;SDS011;1889;50.058;8.688;2024-02-04T15:28:03;0.40;;;0.40;;
3747;SDS011;1889;50.058;8.688;2024-02-04T15:30:52;0.50;;;0.50;;
3747;SDS011;1889;50.058;8.688;2024-02-04T15:33:23;0.40;;;0.37;;
3747;SDS011;1889;50.058;8.688;2024-02-04T15:35:52;0.40;;;0.30;;
3747;SDS011;1889;50.058;8.688;2024-02-04T15:38:30;0.40;;;0.40;;
3747;SDS011;1889;50.058;8.688;2024-02-04T15:41:01;0.60;;;0.23;;
3747;SDS011;1889;50.058;8.688;2024-02-04T15:43:31;0.85;;;0.80;;
3747;SDS011;1889;50.058;8.688;2024-02-04T15:46:00;0.60;;;0.60;;
3747;SDS011;1889;50.058;8.688;2024-02-04T15:48:39;0.35;;;0.35;;
3747;SDS011;1889;50.058;8.688;2024-02-04T15:51:11;0.50;;;0.50;;
3747;SDS011;1889;50.058;8.688;2024-02-04T15:53:41;0.30;;;0.30;;
3747;SDS011;1889;50.058;8.688;2024-02-04T15:56:11;0.55;;;0.40;;